Time;durP1;ratioP1;P1;durP2;ratioP2;P2;SDS_P1;SDS_P2;PMS_P1;PMS_P2;Temp;Humidity;BMP_temperature;BMP_pressure;BME280_temperature;BME280_humidity;BME280_pressure;Samples;Min_cycle;Max_cycle;Signal;HPM_P1;HPM_P2
2022/01/29 00:01:20;;;;;;;7.30;5.37;;;3.00;65.00;;;;;;5149146;27;46546;-63
2022/01/29 00:03:46;;;;;;;9.97;5.30;;;3.00;64.90;;;;;;5153032;27;46419;-63
2022/01/29 00:06:11;;;;;;;5.60;3.73;;;2.90;65.10;;;;;;5154840;27;45788;-62
2022/01/29 00:08:37;;;;;;;9.50;4.30;;;2.90;65.10;;;;;;5160441;27;46371;-62
2022/01/29 00:11:10;;;;;;;8.10;4.60;;;2.80;65.00;;;;;;5163285;27;46474;-63
2022/01/29 00:13:36;;;;;;;10.18;5.53;;;2.80;65.30;;;;;;5158296;27;47132;-62
2022/01/29 00:16:02;;;;;;;9.32;4.30;;;2.70;65.30;;;;;;5153218;27;46390;-62
2022/01/29 00:18:28;;;;;;;6.30;4.10;;;2.70;65.40;;;;;;5149534;27;46272;-62
2022/01/29 00:20:53;;;;;;;14.77;4.93;;;2.70;65.70;;;;;;5151526;27;46624;-61
2022/01/29 00:23:19;;;;;;;5.40;3.50;;;2.50;65.80;;;;;;5153083;27;47086;-63
2022/01/29 00:25:45;;;;;;;13.67;5.40;;;2.40;65.90;;;;;;5154547;27;46342;-61
2022/01/29 00:28:12;;;;;;;12.23;5.50;;;2.30;66.20;;;;;;5158127;27;46444;-62
2022/01/29 00:30:42;;;;;;;6.35;4.18;;;2.30;66.40;;;;;;5159033;27;46495;-61
2022/01/29 00:33:08;;;;;;;11.60;5.00;;;2.20;66.40;;;;;;5149348;27;46760;-62
2022/01/29 00:35:33;;;;;;;10.63;5.28;;;2.20;66.40;;;;;;5161632;27;45910;-61
2022/01/29 00:37:59;;;;;;;11.40;5.17;;;2.20;66.50;;;;;;5149743;27;46331;-62
2022/01/29 00:40:25;;;;;;;8.53;5.00;;;2.20;66.50;;;;;;5152470;27;46591;-64
2022/01/29 00:42:51;;;;;;;8.30;4.90;;;2.10;66.50;;;;;;5153812;27;46463;-63
2022/01/29 00:45:16;;;;;;;10.35;4.75;;;2.10;66.60;;;;;;5157219;27;46419;-62
2022/01/29 00:47:42;;;;;;;7.80;4.90;;;2.10;66.60;;;;;;5154326;27;46339;-62
2022/01/29 00:50:09;;;;;;;9.90;5.40;;;2.10;66.60;;;;;;5155499;27;46580;-61
2022/01/29 00:52:36;;;;;;;12.57;4.80;;;2.10;66.60;;;;;;5156615;27;47269;-61
2022/01/29 00:55:02;;;;;;;14.60;5.90;;;2.10;66.40;;;;;;5160718;27;46416;-62
2022/01/29 00:57:30;;;;;;;8.30;4.85;;;2.20;66.40;;;;;;5161158;27;46423;-62
2022/01/29 00:59:55;;;;;;;12.23;4.80;;;2.30;66.20;;;;;;5163374;27;46388;-63
2022/01/29 01:02:21;;;;;;;9.93;5.10;;;2.30;66.00;;;;;;5157536;27;47134;-63
2022/01/29 01:04:47;;;;;;;8.47;5.07;;;2.30;66.00;;;;;;5157954;27;46482;-64
2022/01/29 01:07:13;;;;;;;9.00;5.13;;;2.40;65.90;;;;;;5162498;27;45730;-63
2022/01/29 01:09:39;;;;;;;8.65;4.95;;;2.40;65.80;;;;;;5161218;27;46316;-63
2022/01/29 01:12:05;;;;;;;7.27;4.80;;;2.50;65.80;;;;;;5154265;27;46163;-62
2022/01/29 01:14:30;;;;;;;6.53;4.35;;;2.50;65.80;;;;;;5155136;27;46478;-61
2022/01/29 01:16:56;;;;;;;9.37;5.40;;;2.50;65.60;;;;;;5154365;27;46389;-63
2022/01/29 01:19:25;;;;;;;6.40;4.37;;;2.60;65.80;;;;;;5155074;27;46389;-62
2022/01/29 01:21:55;;;;;;;9.77;5.15;;;2.50;65.70;;;;;;5154521;27;47314;-63
2022/01/29 01:24:22;;;;;;;8.52;4.78;;;2.60;65.70;;;;;;5158264;27;46424;-62
2022/01/29 01:26:48;;;;;;;11.40;5.45;;;2.60;65.60;;;;;;5157229;27;46398;-63
2022/01/29 01:29:14;;;;;;;9.17;4.77;;;2.70;65.50;;;;;;5151790;27;46485;-63
2022/01/29 01:31:40;;;;;;;11.40;5.40;;;2.70;65.40;;;;;;5147874;27;47286;-62
2022/01/29 01:34:06;;;;;;;10.40;4.97;;;2.60;65.40;;;;;;5152186;27;46299;-64
2022/01/29 01:36:35;;;;;;;6.38;4.80;;;2.60;65.50;;;;;;5154719;27;46419;-62
2022/01/29 01:39:06;;;;;;;11.55;5.28;;;2.60;66.60;;;;;;5157203;27;46508;-61
2022/01/29 01:41:38;;;;;;;8.13;4.93;;;2.60;65.40;;;;;;5159318;27;46361;-63
2022/01/29 01:44:04;;;;;;;8.68;5.10;;;2.60;65.40;;;;;;5154675;27;46385;-61
2022/01/29 01:46:30;;;;;;;8.88;5.20;;;2.50;65.40;;;;;;5156337;27;46372;-62
2022/01/29 01:48:56;;;;;;;8.03;4.93;;;2.60;65.30;;;;;;5159101;27;46550;-62
2022/01/29 01:51:22;;;;;;;8.18;4.95;;;2.60;65.30;;;;;;5156896;27;46365;-61
2022/01/29 01:53:48;;;;;;;8.97;5.20;;;2.60;65.40;;;;;;5154309;27;46423;-63
2022/01/29 01:56:14;;;;;;;9.02;4.50;;;2.60;65.60;;;;;;5153453;27;46338;-63
2022/01/29 01:58:40;;;;;;;6.97;4.43;;;2.60;65.60;;;;;;5155384;27;46583;-63
2022/01/29 02:01:05;;;;;;;8.00;5.00;;;2.50;65.80;;;;;;5151364;27;46611;-60
2022/01/29 02:03:31;;;;;;;10.57;5.50;;;2.50;65.90;;;;;;5146493;27;46311;-61
2022/01/29 02:05:57;;;;;;;11.27;5.00;;;2.50;67.30;;;;;;5155891;27;46280;-62
2022/01/29 02:08:23;;;;;;;11.38;6.00;;;2.50;66.20;;;;;;5156153;27;46526;-63
2022/01/29 02:10:50;;;;;;;12.43;5.00;;;2.50;66.30;;;;;;5154544;27;47107;-62
2022/01/29 02:13:16;;;;;;;12.38;5.20;;;2.50;66.20;;;;;;5161144;27;46414;-63
2022/01/29 02:15:41;;;;;;;7.60;5.30;;;2.60;66.30;;;;;;5156107;27;46379;-62
2022/01/29 02:18:14;;;;;;;8.03;4.67;;;2.60;66.10;;;;;;5158425;27;46311;-63
2022/01/29 02:20:42;;;;;;;6.07;4.25;;;2.60;66.00;;;;;;5150699;27;47185;-64
2022/01/29 02:23:08;;;;;;;6.60;4.35;;;2.60;65.80;;;;;;5151554;27;46731;-63
2022/01/29 02:25:41;;;;;;;15.63;4.43;;;2.60;65.80;;;;;;5150558;27;46273;-63
2022/01/29 02:28:08;;;;;;;12.32;5.28;;;2.60;65.90;;;;;;5151613;27;46311;-63
2022/01/29 02:30:35;;;;;;;10.77;4.38;;;2.60;66.10;;;;;;5154315;27;47123;-64
2022/01/29 02:33:05;;;;;;;8.82;4.80;;;2.50;66.20;;;;;;5156303;27;46413;-64
2022/01/29 02:35:31;;;;;;;7.68;4.60;;;2.50;66.20;;;;;;5155747;27;46388;-62
2022/01/29 02:37:57;;;;;;;9.80;4.17;;;2.60;66.20;;;;;;5162622;27;46525;-64
2022/01/29 02:40:24;;;;;;;7.30;4.30;;;2.60;66.10;;;;;;5153964;27;46376;-62
2022/01/29 02:42:55;;;;;;;5.55;4.22;;;2.60;66.10;;;;;;5146214;27;46324;-62
2022/01/29 02:45:21;;;;;;;8.13;4.38;;;2.60;66.10;;;;;;5152335;27;46300;-63
2022/01/29 02:47:46;;;;;;;7.17;4.60;;;2.70;66.10;;;;;;5153130;27;46486;-63
2022/01/29 02:50:12;;;;;;;5.57;4.00;;;2.70;66.00;;;;;;5151210;27;46986;-63
2022/01/29 02:52:38;;;;;;;8.85;4.40;;;2.70;65.90;;;;;;5152961;27;46529;-63
2022/01/29 02:55:05;;;;;;;5.60;3.50;;;2.80;65.90;;;;;;5155806;27;46604;-63
2022/01/29 02:57:31;;;;;;;8.93;4.50;;;2.80;65.70;;;;;;5156186;27;46466;-63
2022/01/29 03:00:00;;;;;;;8.20;4.32;;;2.80;65.50;;;;;;5154135;27;46408;-63
2022/01/29 03:02:27;;;;;;;7.28;4.20;;;2.90;65.50;;;;;;5161221;27;46289;-62
2022/01/29 03:04:53;;;;;;;8.90;4.40;;;2.80;65.40;;;;;;5155327;27;46487;-62
2022/01/29 03:07:19;;;;;;;13.00;4.90;;;2.90;65.50;;;;;;5155220;27;46308;-63
2022/01/29 03:09:44;;;;;;;9.03;4.50;;;2.80;65.50;;;;;;5155958;27;46500;-62
2022/01/29 03:12:10;;;;;;;7.97;4.37;;;2.90;65.50;;;;;;5158230;27;46329;-63
2022/01/29 03:14:35;;;;;;;10.97;4.20;;;2.90;65.50;;;;;;5153297;27;45763;-63
2022/01/29 03:17:01;;;;;;;6.07;3.80;;;2.90;65.60;;;;;;5153833;27;46431;-62
2022/01/29 03:19:27;;;;;;;14.00;4.30;;;2.90;65.50;;;;;;5155133;27;46507;-63
2022/01/29 03:21:52;;;;;;;6.63;3.50;;;2.90;65.50;;;;;;5151793;27;46523;-63
2022/01/29 03:24:18;;;;;;;6.53;4.33;;;2.80;65.60;;;;;;5150900;27;46316;-63
2022/01/29 03:26:43;;;;;;;7.37;4.50;;;2.80;65.80;;;;;;5161446;27;46608;-62
2022/01/29 03:29:09;;;;;;;9.23;3.93;;;2.70;65.80;;;;;;5157195;27;46423;-63
2022/01/29 03:31:34;;;;;;;8.23;4.13;;;2.80;65.90;;;;;;5150836;27;46360;-63
2022/01/29 03:34:00;;;;;;;9.27;4.40;;;2.80;65.90;;;;;;5146232;27;46373;-63
2022/01/29 03:36:26;;;;;;;11.87;3.97;;;2.90;65.80;;;;;;5156411;27;46196;-64
2022/01/29 03:38:52;;;;;;;6.80;4.30;;;2.90;65.60;;;;;;5153298;27;47050;-63
2022/01/29 03:41:18;;;;;;;12.30;3.70;;;2.90;65.40;;;;;;5154352;27;46490;-64
2022/01/29 03:43:47;;;;;;;11.50;4.03;;;2.90;65.10;;;;;;5158602;27;46265;-62
2022/01/29 03:46:13;;;;;;;7.10;3.85;;;3.10;65.30;;;;;;5159301;27;46550;-64
2022/01/29 03:48:39;;;;;;;7.18;4.05;;;2.90;65.20;;;;;;5153019;27;46433;-63
2022/01/29 03:51:05;;;;;;;14.18;4.70;;;2.80;65.20;;;;;;5163258;27;46389;-62
2022/01/29 03:53:31;;;;;;;7.95;4.07;;;2.80;65.50;;;;;;5161504;27;46359;-62
2022/01/29 03:55:56;;;;;;;6.83;3.23;;;2.70;65.80;;;;;;5155406;27;46370;-62
2022/01/29 03:58:22;;;;;;;5.17;3.50;;;2.60;65.90;;;;;;5154026;27;46414;-64
2022/01/29 04:00:47;;;;;;;4.60;3.60;;;2.60;66.10;;;;;;5157703;27;46372;-64
2022/01/29 04:03:13;;;;;;;5.40;3.60;;;2.60;66.00;;;;;;5154918;27;46391;-63
2022/01/29 04:05:39;;;;;;;6.83;4.10;;;2.70;66.10;;;;;;5153147;27;46601;-63
2022/01/29 04:08:12;;;;;;;6.90;3.80;;;2.60;66.10;;;;;;5159329;27;46710;-63
2022/01/29 04:10:38;;;;;;;7.38;3.75;;;2.60;66.20;;;;;;5158838;27;46577;-63
2022/01/29 04:13:03;;;;;;;6.30;3.70;;;2.60;66.10;;;;;;5153358;27;45786;-62
2022/01/29 04:15:29;;;;;;;8.43;3.93;;;2.70;66.20;;;;;;5163777;27;45793;-63
2022/01/29 04:17:55;;;;;;;6.27;3.80;;;2.70;66.00;;;;;;5157081;27;48067;-63
2022/01/29 04:20:21;;;;;;;5.33;4.00;;;2.80;66.00;;;;;;5154508;27;46433;-63
2022/01/29 04:22:47;;;;;;;10.23;4.00;;;2.80;66.00;;;;;;5159735;27;46384;-62
2022/01/29 04:25:13;;;;;;;6.43;4.00;;;2.80;65.90;;;;;;5153313;27;45903;-62
2022/01/29 04:27:44;;;;;;;8.03;4.80;;;2.80;67.00;;;;;;5152325;27;46260;-64
2022/01/29 04:30:18;;;;;;;5.57;3.88;;;2.80;65.80;;;;;;5150135;27;46648;-64
2022/01/29 04:35:12;;;;;;;10.30;4.90;;;2.80;65.90;;;;;;5155269;27;46442;-63
2022/01/29 04:37:37;;;;;;;6.30;4.07;;;2.80;65.90;;;;;;5154578;27;47065;-63
2022/01/29 04:40:04;;;;;;;5.73;4.00;;;2.80;65.90;;;;;;5162184;27;46298;-63
2022/01/29 04:42:29;;;;;;;10.02;4.95;;;2.80;66.00;;;;;;5163587;27;46326;-62
2022/01/29 04:44:55;;;;;;;10.10;4.63;;;2.80;66.10;;;;;;5154883;27;46270;-63
2022/01/29 04:47:21;;;;;;;12.40;5.43;;;2.80;66.10;;;;;;5148551;27;46406;-63
2022/01/29 04:49:46;;;;;;;10.80;5.37;;;2.90;66.10;;;;;;5156436;27;46425;-63
2022/01/29 04:52:12;;;;;;;7.47;4.97;;;2.90;65.90;;;;;;5151442;27;46376;-63
2022/01/29 04:54:37;;;;;;;8.30;4.60;;;2.90;66.00;;;;;;5153079;27;46506;-61
2022/01/29 04:57:03;;;;;;;7.30;5.30;;;2.90;65.80;;;;;;5155529;27;47043;-63
2022/01/29 04:59:29;;;;;;;12.07;5.00;;;2.90;65.80;;;;;;5159473;27;45861;-62
2022/01/29 05:01:54;;;;;;;9.30;5.17;;;3.00;65.90;;;;;;5157965;27;46706;-64
2022/01/29 05:04:20;;;;;;;8.33;5.57;;;3.00;67.20;;;;;;5154038;27;46478;-64
2022/01/29 05:06:45;;;;;;;11.70;5.40;;;3.00;65.90;;;;;;5157687;27;47937;-63
2022/01/29 05:09:11;;;;;;;9.50;5.30;;;2.90;66.00;;;;;;5152894;27;46173;-62
2022/01/29 05:11:37;;;;;;;10.87;5.40;;;2.90;66.10;;;;;;5155750;27;46456;-63
2022/01/29 05:14:06;;;;;;;8.05;4.65;;;2.90;66.20;;;;;;5158012;27;45951;-64
2022/01/29 05:26:50;;;;;;;11.20;5.07;;;3.00;66.10;;;;;;5153995;27;46409;-62
2022/01/29 05:27:48;;;;;;;8.43;5.10;;;3.00;66.10;;;;;;5150340;27;46301;-63
2022/01/29 05:30:14;;;;;;;11.07;5.72;;;3.00;66.00;;;;;;5151201;27;46410;-64
2022/01/29 05:32:40;;;;;;;8.40;4.87;;;3.00;66.00;;;;;;5155512;27;46365;-63
2022/01/29 05:35:06;;;;;;;11.20;5.43;;;3.10;66.00;;;;;;5152030;27;46364;-64
2022/01/29 05:37:31;;;;;;;10.70;5.20;;;3.10;65.80;;;;;;5158604;27;46772;-63
2022/01/29 05:39:57;;;;;;;7.40;5.07;;;3.20;65.80;;;;;;5159859;27;46367;-63
2022/01/29 05:42:22;;;;;;;9.67;4.80;;;3.40;65.80;;;;;;5153732;27;45845;-63
2022/01/29 05:44:48;;;;;;;8.77;5.20;;;3.30;65.70;;;;;;5153928;27;46273;-63
2022/01/29 05:47:13;;;;;;;7.13;4.67;;;3.20;65.60;;;;;;5154289;27;47100;-63
2022/01/29 05:49:39;;;;;;;6.93;4.40;;;3.30;65.50;;;;;;5150543;27;46465;-63
2022/01/29 05:52:05;;;;;;;7.00;4.90;;;3.30;65.50;;;;;;5149481;27;46584;-63
2022/01/29 05:54:30;;;;;;;7.87;4.80;;;3.30;65.50;;;;;;5148228;27;46567;-63
2022/01/29 05:56:57;;;;;;;7.60;4.40;;;3.30;65.50;;;;;;5151495;27;46467;-63
2022/01/29 05:59:22;;;;;;;6.80;4.40;;;3.30;65.60;;;;;;5152889;27;46454;-63
2022/01/29 06:01:48;;;;;;;8.50;4.37;;;3.30;65.50;;;;;;5150232;27;46396;-63
2022/01/29 06:04:14;;;;;;;11.97;4.47;;;3.30;65.70;;;;;;5151820;27;46490;-64
2022/01/29 06:06:39;;;;;;;8.20;4.80;;;3.40;65.60;;;;;;5154203;27;47125;-63
2022/01/29 06:09:05;;;;;;;10.77;4.50;;;3.40;65.50;;;;;;5153852;27;46436;-64
2022/01/29 06:11:32;;;;;;;6.47;4.17;;;3.40;65.60;;;;;;5155766;27;46391;-64
2022/01/29 06:13:58;;;;;;;9.57;4.25;;;3.40;65.50;;;;;;5150883;27;46491;-63
2022/01/29 06:16:24;;;;;;;7.03;4.30;;;3.40;65.40;;;;;;5149342;27;46456;-63
2022/01/29 06:18:50;;;;;;;7.50;3.80;;;3.40;65.40;;;;;;5145552;27;46540;-63
2022/01/29 06:21:15;;;;;;;6.63;3.83;;;3.50;65.40;;;;;;5145917;27;46389;-62
2022/01/29 06:23:42;;;;;;;7.10;4.07;;;3.50;65.20;;;;;;5147749;27;46475;-64
2022/01/29 06:26:11;;;;;;;7.95;4.03;;;3.50;65.20;;;;;;5151899;27;46171;-62
2022/01/29 06:28:38;;;;;;;6.53;3.78;;;3.50;65.10;;;;;;5148426;27;46351;-63
2022/01/29 06:31:04;;;;;;;7.00;3.88;;;3.50;64.90;;;;;;5149412;27;46517;-63
2022/01/29 06:33:30;;;;;;;7.90;4.20;;;3.50;64.80;;;;;;5145780;27;46557;-64
2022/01/29 06:35:55;;;;;;;5.63;4.57;;;3.50;64.90;;;;;;5149540;27;46460;-61
2022/01/29 06:38:21;;;;;;;14.57;4.27;;;3.50;64.90;;;;;;5147897;27;46627;-63
2022/01/29 06:40:47;;;;;;;9.80;4.40;;;3.50;64.70;;;;;;5147954;27;46472;-64
2022/01/29 06:43:13;;;;;;;9.05;4.57;;;3.60;64.70;;;;;;5144825;27;45973;-64
2022/01/29 06:45:40;;;;;;;6.38;4.40;;;3.60;64.50;;;;;;5144522;27;46712;-63
2022/01/29 06:48:06;;;;;;;6.75;4.57;;;3.60;64.10;;;;;;5141524;27;46603;-64
2022/01/29 06:50:33;;;;;;;10.02;4.43;;;3.70;64.20;;;;;;5146581;27;46558;-63
2022/01/29 06:52:58;;;;;;;6.37;3.90;;;3.80;64.30;;;;;;5149900;27;46270;-64
2022/01/29 06:55:24;;;;;;;6.77;4.30;;;3.70;64.10;;;;;;5147558;27;47082;-63
2022/01/29 06:57:50;;;;;;;5.60;3.85;;;3.80;64.10;;;;;;5151458;27;46393;-63
2022/01/29 07:00:16;;;;;;;6.43;3.97;;;3.90;63.90;;;;;;5153249;27;46690;-63
2022/01/29 07:02:42;;;;;;;4.57;3.50;;;4.00;63.80;;;;;;5149639;27;46548;-63
2022/01/29 07:05:09;;;;;;;5.47;3.80;;;4.00;63.70;;;;;;5150749;27;47206;-62
2022/01/29 07:07:35;;;;;;;12.57;4.82;;;4.10;63.50;;;;;;5156111;27;46476;-62
2022/01/29 07:10:01;;;;;;;7.10;4.00;;;4.20;63.50;;;;;;5151948;27;46360;-65
2022/01/29 07:12:27;;;;;;;7.30;3.93;;;4.20;63.50;;;;;;5148365;27;46433;-63
2022/01/29 07:14:52;;;;;;;6.00;3.90;;;4.20;63.50;;;;;;5151789;27;46396;-64
2022/01/29 07:17:22;;;;;;;6.80;4.10;;;4.20;63.40;;;;;;5153620;27;46364;-64
2022/01/29 07:19:50;;;;;;;5.72;3.35;;;4.20;63.40;;;;;;5157285;27;46381;-64
2022/01/29 07:22:15;;;;;;;7.27;4.10;;;4.40;63.40;;;;;;5151726;27;46454;-64
2022/01/29 07:24:41;;;;;;;7.07;3.83;;;4.50;63.00;;;;;;5152788;27;46486;-63
2022/01/29 07:27:07;;;;;;;7.10;4.37;;;4.60;63.10;;;;;;5158162;27;46706;-64
2022/01/29 07:29:33;;;;;;;13.87;5.37;;;4.60;62.80;;;;;;5156782;27;46283;-63
2022/01/29 07:32:00;;;;;;;5.70;4.30;;;4.80;62.90;;;;;;5158924;27;46627;-63
2022/01/29 07:34:27;;;;;;;7.97;4.43;;;4.80;62.60;;;;;;5159662;27;46524;-62
2022/01/29 07:36:54;;;;;;;8.20;4.15;;;4.80;62.80;;;;;;5154231;27;46508;-64
2022/01/29 07:39:21;;;;;;;9.40;4.50;;;4.70;62.50;;;;;;5160400;27;46406;-63
2022/01/29 07:41:47;;;;;;;9.30;5.13;;;4.70;62.80;;;;;;5159542;27;46386;-65
2022/01/29 07:44:13;;;;;;;7.87;4.60;;;4.80;62.70;;;;;;5155436;27;47127;-64
2022/01/29 07:46:39;;;;;;;10.32;5.30;;;4.70;62.30;;;;;;5155029;27;46428;-64
2022/01/29 07:49:05;;;;;;;14.07;6.87;;;4.70;62.40;;;;;;5156828;27;46393;-65
2022/01/29 07:51:30;;;;;;;7.50;5.43;;;4.90;62.20;;;;;;5155170;27;46602;-64
2022/01/29 07:53:56;;;;;;;6.30;4.40;;;4.90;62.20;;;;;;5151660;27;47263;-64
2022/01/29 07:56:22;;;;;;;7.40;4.40;;;4.90;62.00;;;;;;5156309;27;46369;-64
2022/01/29 07:58:48;;;;;;;6.70;4.37;;;4.90;62.00;;;;;;5159105;27;46348;-63
2022/01/29 08:01:14;;;;;;;7.73;3.97;;;4.90;62.00;;;;;;5157894;27;45867;-63
2022/01/29 08:03:40;;;;;;;5.57;3.63;;;4.90;61.20;;;;;;5149782;27;46435;-62
2022/01/29 08:06:06;;;;;;;9.30;4.25;;;4.80;61.00;;;;;;5153863;27;46519;-62
2022/01/29 08:08:31;;;;;;;10.27;4.40;;;4.90;61.10;;;;;;5155181;27;46315;-64
2022/01/29 08:10:57;;;;;;;10.10;4.10;;;5.00;61.10;;;;;;5160589;27;46458;-62
2022/01/29 08:13:23;;;;;;;5.27;3.80;;;5.10;60.70;;;;;;5160174;27;47052;-64
2022/01/29 08:15:48;;;;;;;6.23;3.97;;;4.90;59.80;;;;;;5160453;27;45748;-63
2022/01/29 08:18:14;;;;;;;8.37;4.10;;;4.90;60.00;;;;;;5154080;27;46382;-63
2022/01/29 08:20:40;;;;;;;7.97;3.87;;;4.80;59.40;;;;;;5159139;27;46403;-63
2022/01/29 08:23:07;;;;;;;10.23;3.97;;;4.70;59.60;;;;;;5159083;27;46390;-64
2022/01/29 08:25:33;;;;;;;6.85;3.90;;;4.70;59.60;;;;;;5156942;27;46410;-63
2022/01/29 08:27:58;;;;;;;6.47;4.03;;;4.60;60.00;;;;;;5155299;27;46015;-63
2022/01/29 08:30:24;;;;;;;9.43;4.57;;;4.70;59.90;;;;;;5159228;27;45838;-63
2022/01/29 08:32:50;;;;;;;7.30;4.10;;;4.70;59.30;;;;;;5153249;27;47122;-61
2022/01/29 08:35:15;;;;;;;8.60;4.10;;;4.80;59.40;;;;;;5152696;27;46420;-64
2022/01/29 08:37:41;;;;;;;6.03;3.47;;;4.90;59.40;;;;;;5150751;27;46523;-61
2022/01/29 08:40:08;;;;;;;6.57;3.90;;;4.90;59.40;;;;;;5158607;27;46560;-62
2022/01/29 08:42:34;;;;;;;7.60;3.90;;;4.90;58.80;;;;;;5153346;27;47089;-64
2022/01/29 08:45:02;;;;;;;6.47;4.00;;;4.90;58.80;;;;;;5154582;27;46314;-62
2022/01/29 08:47:28;;;;;;;5.47;3.43;;;4.80;58.10;;;;;;5161704;27;46644;-63
2022/01/29 08:49:55;;;;;;;12.57;4.07;;;4.70;57.80;;;;;;5160585;27;46305;-63
2022/01/29 08:52:21;;;;;;;7.00;3.97;;;4.60;57.70;;;;;;5157791;27;47003;-63
2022/01/29 08:54:47;;;;;;;8.83;4.03;;;4.80;58.20;;;;;;5150357;27;46536;-64
2022/01/29 08:57:12;;;;;;;6.37;3.67;;;4.90;58.10;;;;;;5152635;27;46605;-64
2022/01/29 08:59:38;;;;;;;6.63;3.90;;;5.00;57.90;;;;;;5153603;27;46715;-65
2022/01/29 09:02:04;;;;;;;7.93;3.67;;;5.10;58.00;;;;;;5153461;27;46417;-63
2022/01/29 09:04:29;;;;;;;5.63;3.10;;;5.10;58.00;;;;;;5156397;27;46350;-63
2022/01/29 09:06:55;;;;;;;7.77;3.60;;;5.10;57.90;;;;;;5157939;27;46638;-64
2022/01/29 09:09:25;;;;;;;5.10;3.40;;;5.10;57.80;;;;;;5150943;27;46064;-63
2022/01/29 09:11:51;;;;;;;3.93;2.90;;;5.20;58.00;;;;;;5153175;27;47284;-63
2022/01/29 09:14:17;;;;;;;6.15;3.70;;;5.20;57.90;;;;;;5144339;27;46385;-64
2022/01/29 09:16:43;;;;;;;7.37;3.80;;;5.20;57.70;;;;;;5147438;27;46476;-63
2022/01/29 09:19:09;;;;;;;10.37;3.83;;;5.30;57.70;;;;;;5150298;27;46380;-63
2022/01/29 09:21:34;;;;;;;4.30;3.20;;;5.20;57.30;;;;;;5150541;27;47265;-64
2022/01/29 09:24:00;;;;;;;6.40;2.93;;;5.20;57.50;;;;;;5152444;27;46534;-64
2022/01/29 09:26:26;;;;;;;5.90;2.80;;;5.30;57.20;;;;;;5155212;27;46506;-64
2022/01/29 09:28:51;;;;;;;7.50;3.30;;;5.30;57.00;;;;;;5158639;27;46567;-63
2022/01/29 09:31:17;;;;;;;8.20;2.50;;;5.50;56.50;;;;;;5159368;27;46444;-62
2022/01/29 09:33:43;;;;;;;4.73;3.13;;;5.60;56.40;;;;;;5156764;27;46450;-64
2022/01/29 09:36:09;;;;;;;2.65;2.22;;;5.70;56.40;;;;;;5162837;27;46364;-63
2022/01/29 09:38:36;;;;;;;3.63;2.20;;;5.70;56.30;;;;;;5156759;27;46407;-62
2022/01/29 09:41:03;;;;;;;5.00;2.57;;;5.90;56.20;;;;;;5154329;27;46356;-64
2022/01/29 09:43:31;;;;;;;3.77;2.37;;;5.80;56.00;;;;;;5151275;27;46769;-63
2022/01/29 09:45:57;;;;;;;3.87;2.37;;;5.70;55.20;;;;;;5158983;27;46461;-63
2022/01/29 09:48:26;;;;;;;4.00;2.30;;;5.50;55.10;;;;;;5154154;27;46532;-63
2022/01/29 09:50:52;;;;;;;3.30;2.07;;;5.50;55.40;;;;;;5152089;27;47879;-64
2022/01/29 09:53:19;;;;;;;5.30;3.00;;;5.50;55.50;;;;;;5157797;27;46303;-63
2022/01/29 09:55:45;;;;;;;4.17;2.53;;;5.60;55.50;;;;;;5153565;27;46432;-64
2022/01/29 09:58:11;;;;;;;3.33;2.10;;;5.80;55.50;;;;;;5151591;27;46339;-64
2022/01/29 10:00:37;;;;;;;5.77;2.40;;;5.60;55.00;;;;;;5162845;27;46458;-63
2022/01/29 10:03:14;;;;;;;3.03;2.00;;;5.70;54.90;;;;;;5156862;27;46520;-64
2022/01/29 10:05:40;;;;;;;5.40;1.83;;;5.70;54.80;;;;;;5153918;27;46593;-63
2022/01/29 10:08:07;;;;;;;3.70;2.33;;;5.80;54.60;;;;;;5148829;27;46435;-63
2022/01/29 10:10:43;;;;;;;3.00;1.70;;;5.80;54.50;;;;;;5156573;27;46367;-63
2022/01/29 10:13:21;;;;;;;11.33;2.00;;;5.90;54.00;;;;;;5151134;27;46390;-64
2022/01/29 10:15:47;;;;;;;2.57;1.83;;;5.80;53.20;;;;;;5156001;27;46573;-63
2022/01/29 10:18:23;;;;;;;4.43;2.00;;;5.80;53.10;;;;;;5156728;27;46493;-63
2022/01/29 10:20:50;;;;;;;3.07;2.00;;;5.90;53.20;;;;;;5151396;27;46337;-63
2022/01/29 10:23:16;;;;;;;3.37;1.90;;;6.00;53.00;;;;;;5153017;27;46482;-64
2022/01/29 10:25:44;;;;;;;3.23;2.03;;;6.10;52.60;;;;;;5157815;27;45847;-63
2022/01/29 10:28:21;;;;;;;4.10;2.30;;;6.10;52.20;;;;;;5154999;27;45957;-65
2022/01/29 10:30:50;;;;;;;2.50;1.67;;;6.20;52.30;;;;;;5150448;27;46032;-63
2022/01/29 10:33:19;;;;;;;3.80;2.37;;;6.20;52.20;;;;;;5152714;27;46387;-63
2022/01/29 10:35:47;;;;;;;4.27;1.67;;;6.30;52.20;;;;;;5154828;27;46374;-63
2022/01/29 10:38:12;;;;;;;3.00;1.67;;;6.40;52.20;;;;;;5148791;27;46577;-62
2022/01/29 10:40:39;;;;;;;3.50;1.73;;;6.50;52.20;;;;;;5154758;27;46459;-64
2022/01/29 10:43:06;;;;;;;3.50;2.40;;;6.70;51.90;;;;;;5149310;27;46440;-64
2022/01/29 10:45:34;;;;;;;2.83;2.00;;;6.70;51.60;;;;;;5152925;27;46350;-65
2022/01/29 10:48:00;;;;;;;3.60;2.03;;;6.90;51.30;;;;;;5155851;27;46455;-63
2022/01/29 10:50:27;;;;;;;3.63;2.10;;;7.00;51.20;;;;;;5158605;27;47117;-63
2022/01/29 10:52:53;;;;;;;2.87;1.83;;;7.10;51.00;;;;;;5159973;27;45803;-63
2022/01/29 10:55:18;;;;;;;3.38;2.10;;;7.10;50.90;;;;;;5159700;27;46351;-63
2022/01/29 10:57:46;;;;;;;3.57;2.00;;;7.20;50.30;;;;;;5154775;27;46791;-62
2022/01/29 11:00:30;;;;;;;3.40;2.30;;;7.20;50.20;;;;;;5156914;27;46517;-63
2022/01/29 11:02:57;;;;;;;2.37;1.63;;;7.40;50.40;;;;;;5153745;27;46317;-62
2022/01/29 11:05:26;;;;;;;2.60;2.03;;;7.50;50.50;;;;;;5153893;27;46208;-63
2022/01/29 11:07:54;;;;;;;4.30;2.07;;;7.70;50.70;;;;;;5158090;27;46327;-64
2022/01/29 11:10:20;;;;;;;4.73;2.60;;;8.00;50.40;;;;;;5155910;27;47225;-64
2022/01/29 11:12:48;;;;;;;3.37;2.20;;;8.10;50.00;;;;;;5158673;27;46480;-63
2022/01/29 11:15:18;;;;;;;5.07;2.63;;;8.10;49.90;;;;;;5165482;27;46519;-63
2022/01/29 11:17:45;;;;;;;4.23;2.67;;;8.10;50.00;;;;;;5152311;27;46663;-63
2022/01/29 11:20:11;;;;;;;4.83;2.03;;;8.10;50.00;;;;;;5150750;27;46446;-63
2022/01/29 11:22:40;;;;;;;2.77;1.67;;;8.10;49.60;;;;;;5152666;27;46388;-63
2022/01/29 11:25:09;;;;;;;8.57;2.40;;;8.20;49.30;;;;;;5153000;27;46437;-63
2022/01/29 11:27:41;;;;;;;6.20;3.67;;;8.30;49.10;;;;;;5156947;27;46490;-64
2022/01/29 11:30:09;;;;;;;6.90;2.17;;;8.40;48.90;;;;;;5159346;27;46421;-64
2022/01/29 11:32:42;;;;;;;6.30;2.43;;;8.60;48.50;;;;;;5161556;27;46518;-64
2022/01/29 11:35:28;;;;;;;6.50;2.20;;;8.80;48.30;;;;;;5155698;27;46227;-63
2022/01/29 11:37:59;;;;;;;7.00;2.03;;;9.10;47.70;;;;;;5158399;27;46548;-63
2022/01/29 11:40:59;;;;;;;6.53;2.60;;;9.20;45.70;;;;;;5157306;27;46423;-64
2022/01/29 11:43:34;;;;;;;3.10;2.10;;;9.10;45.20;;;;;;5119664;27;46344;-63
2022/01/29 11:46:12;;;;;;;6.40;2.30;;;9.10;45.40;;;;;;5157316;27;46440;-64
2022/01/29 11:48:52;;;;;;;4.30;1.70;;;9.00;46.30;;;;;;5160007;27;46281;-63
2022/01/29 11:51:43;;;;;;;4.77;1.97;;;9.00;46.50;;;;;;5154387;27;46527;-65
2022/01/29 11:54:10;;;;;;;4.93;1.90;;;9.00;45.80;;;;;;5157607;27;46787;-64
2022/01/29 11:56:38;;;;;;;11.63;1.90;;;9.10;46.20;;;;;;5158468;27;45862;-63
2022/01/29 11:59:28;;;;;;;5.20;1.50;;;9.20;45.70;;;;;;5157008;27;46401;-63
2022/01/29 12:02:03;;;;;;;4.40;2.00;;;9.10;45.50;;;;;;5155124;27;46270;-64
2022/01/29 12:04:59;;;;;;;3.33;1.70;;;9.20;45.80;;;;;;5163611;27;46327;-63
2022/01/29 12:07:36;;;;;;;3.30;1.80;;;9.20;45.40;;;;;;5154819;27;46336;-63
2022/01/29 12:10:03;;;;;;;2.70;1.60;;;9.10;44.00;;;;;;5153460;27;46354;-63
2022/01/29 12:12:30;;;;;;;6.77;2.00;;;9.00;43.40;;;;;;5156891;27;47090;-63
2022/01/29 12:15:15;;;;;;;2.50;1.30;;;9.10;44.10;;;;;;5156579;27;46524;-64
2022/01/29 12:17:52;;;;;;;4.70;1.70;;;8.90;43.30;;;;;;5155543;27;46388;-64
2022/01/29 12:20:19;;;;;;;3.00;1.80;;;8.90;43.70;;;;;;5158574;27;46361;-63
2022/01/29 12:22:46;;;;;;;3.23;1.80;;;9.10;44.20;;;;;;5157785;27;46377;-63
2022/01/29 12:25:18;;;;;;;2.33;1.57;;;9.20;44.40;;;;;;5150532;27;46167;-63
2022/01/29 12:27:49;;;;;;;4.47;1.60;;;9.20;44.50;;;;;;5162973;27;45795;-64
2022/01/29 12:30:20;;;;;;;3.20;1.43;;;9.10;44.40;;;;;;5156246;27;46363;-64
2022/01/29 12:33:06;;;;;;;2.67;1.50;;;9.10;44.80;;;;;;5152394;27;46432;-64
2022/01/29 12:35:57;;;;;;;4.60;1.93;;;8.90;45.00;;;;;;5154862;27;46341;-63
2022/01/29 12:38:26;;;;;;;4.73;2.03;;;9.00;45.20;;;;;;5152653;27;46340;-64
2022/01/29 12:40:58;;;;;;;3.40;2.00;;;9.00;45.50;;;;;;5157472;27;46304;-64
2022/01/29 12:43:29;;;;;;;2.70;1.50;;;9.10;45.40;;;;;;5157051;27;46349;-63
2022/01/29 12:46:13;;;;;;;5.67;1.93;;;9.10;45.40;;;;;;5161630;27;46276;-63
2022/01/29 12:48:40;;;;;;;3.10;1.90;;;9.10;45.50;;;;;;5153331;27;46420;-63
2022/01/29 12:51:10;;;;;;;2.80;1.50;;;9.00;45.20;;;;;;5156338;27;46315;-63
2022/01/29 12:53:37;;;;;;;3.00;1.70;;;8.90;45.40;;;;;;5162445;27;46661;-63
2022/01/29 12:56:08;;;;;;;13.67;6.80;;;9.00;45.70;;;;;;5153865;27;46585;-64
2022/01/29 12:58:39;;;;;;;10.40;5.43;;;9.10;45.70;;;;;;5151882;27;46282;-64
2022/01/29 13:01:11;;;;;;;39.30;18.27;;;9.10;45.70;;;;;;5154743;27;46407;-63
2022/01/29 13:03:38;;;;;;;22.15;9.23;;;9.30;45.70;;;;;;5170193;27;47007;-63
2022/01/29 13:06:12;;;;;;;16.40;7.70;;;9.50;45.50;;;;;;5151857;27;46340;-66
2022/01/29 13:08:38;;;;;;;12.20;6.20;;;9.70;45.40;;;;;;5148667;27;46372;-64